createdAt,value
2019-06-07T00:01:05.518Z,10.43
2019-06-07T00:03:31.935Z,10.38
2019-06-07T00:05:58.057Z,10.39
2019-06-07T00:08:29.048Z,10.37
2019-06-07T00:10:53.529Z,10.33
2019-06-07T00:13:21.583Z,10.25
2019-06-07T00:15:47.703Z,10.25
2019-06-07T00:18:17.533Z,10.09
2019-06-07T00:20:41.856Z,10.18
2019-06-07T00:23:12.182Z,10.16
2019-06-07T00:25:37.524Z,10.12
2019-06-07T00:28:03.795Z,10.11
2019-06-07T00:30:41.086Z,10.05
2019-06-07T00:32:58.196Z,10.02
2019-06-07T00:35:24.450Z,9.95
2019-06-07T00:37:50.572Z,9.88
2019-06-07T00:40:27.109Z,9.86
2019-06-07T00:42:44.951Z,9.87
2019-06-07T00:45:17.912Z,9.88
2019-06-07T00:47:40.314Z,9.86
2019-06-07T00:50:08.772Z,9.82
2019-06-07T00:55:05.344Z,9.75
2019-06-07T00:57:31.559Z,9.75
2019-06-07T00:59:57.723Z,9.72
2019-06-07T01:02:31.262Z,9.68
2019-06-07T01:04:55.289Z,9.62
2019-06-07T01:07:21.986Z,9.56
2019-06-07T01:09:49.551Z,9.51
2019-06-07T01:12:19.419Z,9.43
2019-06-07T01:14:44.236Z,9.35
2019-06-07T01:17:27.736Z,9.30
2019-06-07T01:19:41.714Z,9.24
2019-06-07T01:22:07.937Z,8.85
2019-06-07T01:24:34.177Z,9.16
2019-06-07T01:27:00.305Z,9.19
2019-06-07T01:29:29.464Z,9.19
2019-06-07T01:31:54.704Z,9.18
2019-06-07T01:34:21.757Z,9.17
2019-06-07T01:36:48.970Z,9.16
2019-06-07T01:39:16.369Z,9.20
2019-06-07T01:41:42.576Z,9.20
2019-06-07T01:44:08.747Z,9.15
2019-06-07T01:46:34.981Z,9.14
2019-06-07T01:49:01.196Z,9.13
2019-06-07T01:51:30.479Z,9.13
2019-06-07T01:54:40.728Z,9.11
2019-06-07T01:56:26.517Z,9.11
2019-06-07T01:58:51.635Z,9.15
2019-06-07T02:01:19.663Z,9.20
2019-06-07T02:03:45.795Z,9.27
2019-06-07T02:06:12.021Z,9.33
2019-06-07T02:08:38.269Z,9.39
2019-06-07T02:11:04.513Z,9.44
2019-06-07T02:13:30.880Z,9.53
2019-06-07T02:15:57.164Z,9.62
2019-06-07T02:18:25.495Z,9.71
2019-06-07T02:20:51.348Z,9.80
2019-06-07T02:23:17.471Z,9.89
2019-06-07T02:25:50.202Z,10.00
2019-06-07T02:28:27.570Z,10.09
2019-06-07T02:30:53.342Z,10.18
2019-06-07T02:33:08.040Z,10.24
2019-06-07T02:35:40.470Z,10.33
2019-06-07T02:38:02.299Z,10.42
2019-06-07T02:40:36.040Z,10.49
2019-06-07T02:42:56.655Z,10.57
2019-06-07T02:45:24.808Z,10.57
2019-06-07T02:47:51.018Z,10.70
2019-06-07T02:50:17.755Z,10.79
2019-06-07T02:52:43.871Z,10.87
2019-06-07T02:55:12.010Z,10.97
2019-06-07T02:57:41.594Z,11.05
2019-06-07T03:00:40.820Z,11.14
2019-06-07T03:02:41.184Z,11.22
2019-06-07T03:05:05.985Z,11.31
2019-06-07T03:07:36.201Z,11.41
2019-06-07T03:10:02.066Z,11.51
2019-06-07T03:12:32.305Z,11.61
2019-06-07T03:14:59.618Z,11.72
2019-06-07T03:17:35.255Z,11.82
2019-06-07T03:20:03.201Z,11.96
2019-06-07T03:22:35.130Z,12.12
2019-06-07T03:25:02.901Z,12.33
2019-06-07T03:27:36.040Z,12.56
2019-06-07T03:29:57.268Z,12.77
2019-06-07T03:32:23.401Z,13.06
2019-06-07T03:34:49.633Z,13.36
2019-06-07T03:37:15.755Z,13.66
2019-06-07T03:39:41.893Z,13.92
2019-06-07T03:42:08.587Z,14.15
2019-06-07T03:44:37.874Z,14.44
2019-06-07T03:47:03.035Z,14.83
2019-06-07T03:49:31.519Z,15.12
2019-06-07T03:51:57.394Z,15.36
2019-06-07T03:54:23.618Z,15.60
2019-06-07T03:56:49.862Z,15.96
2019-06-07T03:59:16.087Z,16.30
2019-06-07T04:01:42.238Z,16.57
2019-06-07T04:04:08.471Z,16.92
2019-06-07T04:06:36.806Z,17.45
2019-06-07T04:09:04.868Z,17.45
2019-06-07T04:11:32.589Z,17.54
2019-06-07T04:13:58.862Z,17.46
2019-06-07T04:16:25.005Z,17.71
2019-06-07T04:18:51.149Z,18.02
2019-06-07T04:21:17.410Z,18.49
2019-06-07T04:23:45.774Z,18.85
2019-06-07T04:26:11.790Z,19.31
2019-06-07T04:29:30.501Z,19.78
2019-06-07T04:31:06.179Z,20.07
2019-06-07T04:33:34.970Z,20.32
2019-06-07T04:36:01.884Z,20.54
2019-06-07T04:38:32.712Z,20.97
2019-06-07T04:40:58.870Z,21.42
2019-06-07T04:43:29.863Z,21.72
2019-06-07T04:45:56.050Z,22.07
2019-06-07T04:48:24.896Z,22.42
2019-06-07T04:50:53.320Z,22.74
2019-06-07T04:53:19.473Z,23.03
2019-06-07T04:55:45.702Z,23.27
2019-06-07T04:58:11.931Z,23.60
2019-06-07T05:01:01.485Z,23.73
2019-06-07T05:03:06.545Z,23.76
2019-06-07T05:05:34.528Z,23.94
2019-06-07T05:08:07.154Z,24.35
2019-06-07T05:10:30.616Z,24.40
2019-06-07T05:12:57.648Z,24.34
2019-06-07T05:15:23.967Z,24.66
2019-06-07T05:17:50.322Z,24.93
2019-06-07T05:20:16.647Z,25.31
2019-06-07T05:22:45.238Z,25.45
2019-06-07T05:25:11.019Z,25.74
2019-06-07T05:27:39.326Z,25.92
2019-06-07T05:30:23.820Z,26.27
2019-06-07T05:32:36.781Z,26.51
2019-06-07T05:35:04.750Z,26.74
2019-06-07T05:37:33.058Z,26.76
2019-06-07T05:39:59.108Z,26.58
2019-06-07T05:42:25.341Z,26.77
2019-06-07T05:44:51.581Z,26.88
2019-06-07T05:47:17.808Z,26.94
2019-06-07T05:49:47.006Z,27.16
2019-06-07T05:52:12.216Z,27.51
2019-06-07T05:54:40.509Z,27.92
2019-06-07T05:57:06.581Z,28.06
2019-06-07T05:59:33.790Z,28.23
2019-06-07T06:02:09.476Z,28.35
2019-06-07T06:04:28.899Z,28.58
2019-06-07T06:06:55.146Z,28.61
2019-06-07T06:09:21.341Z,28.91
2019-06-07T06:11:59.529Z,29.04
2019-06-07T06:14:15.669Z,29.21
2019-06-07T06:16:44.481Z,29.46
2019-06-07T06:19:09.912Z,29.63
2019-06-07T06:21:36.252Z,29.65
2019-06-07T06:24:02.492Z,29.64
2019-06-07T06:26:28.628Z,29.97
2019-06-07T06:28:56.261Z,30.17
2019-06-07T06:31:22.546Z,30.26
2019-06-07T06:33:49.874Z,30.11
2019-06-07T06:36:16.461Z,30.04
2019-06-07T06:38:43.864Z,30.00
2019-06-07T06:41:15.808Z,30.03
2019-06-07T06:43:41.477Z,30.13
2019-06-07T06:46:06.964Z,30.36
2019-06-07T06:48:33.116Z,30.55
2019-06-07T06:50:59.261Z,30.55
2019-06-07T06:53:25.512Z,30.87
2019-06-07T06:55:51.749Z,30.94
2019-06-07T06:58:17.921Z,30.98
2019-06-07T07:00:59.753Z,30.89
2019-06-07T07:03:56.787Z,31.09
2019-06-07T07:05:48.673Z,31.33
2019-06-07T07:08:12.857Z,31.62
2019-06-07T07:10:45.901Z,31.68
2019-06-07T07:13:13.080Z,31.74
2019-06-07T07:15:39.507Z,31.46
2019-06-07T07:18:08.908Z,31.78
2019-06-07T07:20:39.194Z,31.74
2019-06-07T07:23:05.568Z,31.69
2019-06-07T07:25:31.801Z,31.97
2019-06-07T07:27:58.186Z,32.23
2019-06-07T07:30:47.388Z,32.17
2019-06-07T07:33:14.800Z,32.42
2019-06-07T07:36:03.244Z,31.99
2019-06-07T07:38:09.173Z,31.74
2019-06-07T07:40:57.087Z,31.79
2019-06-07T07:43:05.038Z,31.96
2019-06-07T07:45:31.304Z,32.02
2019-06-07T07:48:13.764Z,31.87
2019-06-07T07:50:25.698Z,32.06
2019-06-07T07:52:56.002Z,32.00
2019-06-07T07:55:20.010Z,32.45
2019-06-07T07:57:48.672Z,32.63
2019-06-07T08:00:49.575Z,32.73
2019-06-07T08:02:43.220Z,32.77
2019-06-07T08:05:22.658Z,32.49
2019-06-07T08:07:38.622Z,32.80
2019-06-07T08:10:05.771Z,33.09
2019-06-07T08:12:52.877Z,33.26
2019-06-07T08:15:03.432Z,32.98
2019-06-07T08:17:28.200Z,32.91
2019-06-07T08:19:57.332Z,32.92
2019-06-07T08:22:22.598Z,33.02
2019-06-07T08:24:50.463Z,33.04
2019-06-07T08:27:25.862Z,33.10
2019-06-07T08:30:00.875Z,32.65
2019-06-07T08:32:13.405Z,32.21
2019-06-07T08:34:39.569Z,31.99
2019-06-07T08:37:05.825Z,32.11
2019-06-07T08:39:32.095Z,32.43
2019-06-07T08:42:12.765Z,32.59
2019-06-07T08:44:26.521Z,32.63
2019-06-07T08:47:11.623Z,32.67
2019-06-07T08:49:20.997Z,32.41
2019-06-07T08:51:47.263Z,32.54
2019-06-07T08:54:22.198Z,32.75
2019-06-07T08:56:41.645Z,32.65
2019-06-07T08:59:11.403Z,32.61
2019-06-07T09:01:36.055Z,32.60
2019-06-07T09:04:07.660Z,32.83
2019-06-07T09:09:01.578Z,32.83
2019-06-07T09:11:26.794Z,32.70
2019-06-07T09:13:54.510Z,32.75
2019-06-07T09:16:21.197Z,33.07
2019-06-07T09:18:47.428Z,32.92
2019-06-07T09:21:13.573Z,32.94
2019-06-07T09:23:39.838Z,33.07
2019-06-07T09:26:15.986Z,33.15
2019-06-07T09:28:34.128Z,32.77
2019-06-07T09:31:06.902Z,32.40
2019-06-07T09:33:28.562Z,32.45
2019-06-07T09:35:56.166Z,32.66
2019-06-07T09:38:26.184Z,32.71
2019-06-07T09:40:51.221Z,32.68
2019-06-07T09:45:45.528Z,32.78
2019-06-07T09:48:34.439Z,32.79
2019-06-07T09:50:43.853Z,32.98
2019-06-07T09:53:21.999Z,33.05
2019-06-07T09:55:38.338Z,32.98
2019-06-07T09:58:44.862Z,32.81
2019-06-07T10:00:40.571Z,32.66
2019-06-07T10:03:13.852Z,33.10
2019-06-07T10:05:29.147Z,33.18
2019-06-07T10:08:07.589Z,32.85
2019-06-07T10:12:51.704Z,33.03
2019-06-07T10:15:17.971Z,33.25
2019-06-07T10:17:44.095Z,32.98
2019-06-07T10:20:10.554Z,33.05
2019-06-07T10:22:36.835Z,32.94
2019-06-07T10:25:04.446Z,32.99
2019-06-07T10:27:31.098Z,32.76
2019-06-07T10:29:57.348Z,32.82
2019-06-07T10:32:23.712Z,32.63
2019-06-07T10:34:50.006Z,32.53
2019-06-07T10:37:16.267Z,32.47
2019-06-07T10:39:48.533Z,32.50
2019-06-07T10:42:11.609Z,32.26
2019-06-07T10:44:38.062Z,32.70
2019-06-07T10:47:05.922Z,32.63
2019-06-07T10:49:32.269Z,32.71
2019-06-07T10:51:58.511Z,32.30
2019-06-07T10:54:30.337Z,32.51
2019-06-07T10:56:52.900Z,32.75
2019-06-07T10:59:19.157Z,32.89
2019-06-07T11:01:45.414Z,33.09
2019-06-07T11:04:11.817Z,33.15
2019-06-07T11:06:39.782Z,33.19
2019-06-07T11:09:07.899Z,32.96
2019-06-07T11:11:34.313Z,33.30
2019-06-07T11:14:00.572Z,33.45
2019-06-07T11:16:26.908Z,33.38
2019-06-07T11:18:53.053Z,33.45
2019-06-07T11:21:19.301Z,33.30
2019-06-07T11:23:46.525Z,33.13
2019-06-07T11:26:12.774Z,33.35
2019-06-07T11:28:39.013Z,33.52
2019-06-07T11:31:06.350Z,33.82
2019-06-07T11:33:32.719Z,34.18
2019-06-07T11:35:58.964Z,34.14
2019-06-07T11:38:25.196Z,33.95
2019-06-07T11:40:51.455Z,33.90
2019-06-07T11:43:18.833Z,33.72
2019-06-07T11:45:45.431Z,33.69
2019-06-07T11:48:11.655Z,33.50
2019-06-07T11:50:37.916Z,33.48
2019-06-07T11:53:04.177Z,33.35
2019-06-07T11:55:30.320Z,33.21
2019-06-07T11:57:56.557Z,33.15
2019-06-07T12:00:23.709Z,33.05
2019-06-07T12:02:50.022Z,33.05
2019-06-07T12:05:19.809Z,33.00
2019-06-07T12:07:44.812Z,32.94
2019-06-07T12:10:12.569Z,32.86
2019-06-07T12:12:38.946Z,32.95
2019-06-07T12:15:06.097Z,33.06
2019-06-07T12:17:32.254Z,33.17
2019-06-07T12:19:58.394Z,32.92
2019-06-07T12:22:24.552Z,32.84
2019-06-07T12:24:50.815Z,33.00
2019-06-07T12:27:17.159Z,32.92
2019-06-07T12:29:43.425Z,32.38
2019-06-07T12:32:11.133Z,32.55
2019-06-07T12:34:37.496Z,32.89
2019-06-07T12:37:03.732Z,32.88
2019-06-07T12:39:29.986Z,32.82
2019-06-07T12:41:56.218Z,32.77
2019-06-07T12:44:22.840Z,32.87
2019-06-07T12:46:49.320Z,32.90
2019-06-07T12:49:15.575Z,32.99
2019-06-07T12:51:42.693Z,32.96
2019-06-07T12:54:08.824Z,32.84
2019-06-07T12:56:36.113Z,32.78
2019-06-07T12:59:02.588Z,32.73
2019-06-07T13:01:28.735Z,32.66
2019-06-07T13:03:54.986Z,32.46
2019-06-07T13:06:21.684Z,32.50
2019-06-07T13:08:49.066Z,32.37
2019-06-07T13:11:21.634Z,32.21
2019-06-07T13:13:43.584Z,32.14
2019-06-07T13:16:09.982Z,31.82
2019-06-07T13:18:36.201Z,31.78
2019-06-07T13:21:02.441Z,31.94
2019-06-07T13:23:29.119Z,31.97
2019-06-07T13:25:55.451Z,31.70
2019-06-07T13:28:22.682Z,31.53
2019-06-07T13:30:49.046Z,31.33
2019-06-07T13:33:16.795Z,31.38
2019-06-07T13:35:43.828Z,31.40
2019-06-07T13:38:11.889Z,31.63
2019-06-07T13:40:38.019Z,31.50
2019-06-07T13:43:04.279Z,31.38
2019-06-07T13:45:30.518Z,31.32
2019-06-07T13:47:56.881Z,31.21
2019-06-07T13:50:24.136Z,31.18
2019-06-07T13:52:50.357Z,31.40
2019-06-07T13:55:17.878Z,31.21
2019-06-07T13:57:44.247Z,31.00
2019-06-07T14:00:11.804Z,30.99
2019-06-07T14:02:38.244Z,30.98
2019-06-07T14:05:06.283Z,30.95
2019-06-07T14:07:32.437Z,30.84
2019-06-07T14:09:58.576Z,30.85
2019-06-07T14:12:26.202Z,30.74
2019-06-07T14:14:52.644Z,30.85
2019-06-07T14:17:18.779Z,30.56
2019-06-07T14:19:45.034Z,30.40
2019-06-07T14:22:11.266Z,30.28
2019-06-07T14:24:37.507Z,30.05
2019-06-07T14:27:06.631Z,29.95
2019-06-07T14:29:34.586Z,30.21
2019-06-07T14:32:00.831Z,30.28
2019-06-07T14:34:28.600Z,29.91
2019-06-07T14:36:55.047Z,29.72
2019-06-07T14:39:21.191Z,29.62
2019-06-07T14:41:47.325Z,29.12
2019-06-07T14:44:13.446Z,28.56
2019-06-07T14:46:39.710Z,28.02
2019-06-07T14:49:05.848Z,27.47
2019-06-07T14:51:33.495Z,27.35
2019-06-07T14:54:00.257Z,27.19
2019-06-07T14:56:27.059Z,27.06
2019-06-07T14:58:53.332Z,26.91
2019-06-07T15:01:19.574Z,26.85
2019-06-07T15:03:45.701Z,26.70
2019-06-07T15:06:11.970Z,26.57
2019-06-07T15:08:39.150Z,26.33
2019-06-07T15:11:05.566Z,26.25
2019-06-07T15:13:33.451Z,26.19
2019-06-07T15:15:59.920Z,26.10
2019-06-07T15:18:27.492Z,25.97
2019-06-07T15:20:53.921Z,25.90
2019-06-07T15:23:20.179Z,25.78
2019-06-07T15:25:46.330Z,25.75
2019-06-07T15:28:12.542Z,25.65
2019-06-07T15:30:38.795Z,25.63
2019-06-07T15:33:05.046Z,25.64
2019-06-07T15:35:32.140Z,25.57
2019-06-07T15:37:58.612Z,25.40
2019-06-07T15:40:24.842Z,25.31
2019-06-07T15:42:53.228Z,25.29
2019-06-07T15:45:19.316Z,25.24
2019-06-07T15:47:45.607Z,25.20
2019-06-07T15:50:13.144Z,25.20
2019-06-07T15:52:41.267Z,25.10
2019-06-07T15:55:09.231Z,24.94
2019-06-07T15:57:35.355Z,24.83
2019-06-07T16:00:03.855Z,24.78
2019-06-07T16:02:31.365Z,24.66
2019-06-07T16:04:57.767Z,24.53
2019-06-07T16:07:23.896Z,24.48
2019-06-07T16:09:50.128Z,24.40
2019-06-07T16:12:16.281Z,24.33
2019-06-07T16:14:43.530Z,24.29
2019-06-07T16:17:09.996Z,24.23
2019-06-07T16:19:41.056Z,24.14
2019-06-07T16:22:04.398Z,24.03
2019-06-07T16:24:30.617Z,23.92
2019-06-07T16:26:56.766Z,23.85
2019-06-07T16:29:22.921Z,23.76
2019-06-07T16:31:49.085Z,23.67
2019-06-07T16:34:15.216Z,23.62
2019-06-07T16:36:42.278Z,23.53
2019-06-07T16:39:08.768Z,23.44
2019-06-07T16:41:36.439Z,23.41
2019-06-07T16:44:02.993Z,23.34
2019-06-07T16:46:29.262Z,23.25
2019-06-07T16:48:55.387Z,23.16
2019-06-07T16:51:21.623Z,23.09
2019-06-07T16:53:48.612Z,23.01
2019-06-07T16:56:15.005Z,22.94
2019-06-07T16:58:42.292Z,22.84
2019-06-07T17:01:08.676Z,22.81
2019-06-07T17:03:34.934Z,22.73
2019-06-07T17:06:01.178Z,22.63
2019-06-07T17:08:27.432Z,22.53
2019-06-07T17:10:53.680Z,22.48
2019-06-07T17:13:32.354Z,22.40
2019-06-07T17:15:48.970Z,22.35
2019-06-07T17:18:17.093Z,22.29
2019-06-07T17:20:43.295Z,22.26
2019-06-07T17:23:09.469Z,22.19
2019-06-07T17:25:35.606Z,22.17
2019-06-07T17:28:01.875Z,22.13
2019-06-07T17:30:28.127Z,22.09
2019-06-07T17:32:59.160Z,22.06
2019-06-07T17:35:22.418Z,22.01
2019-06-07T17:37:49.637Z,21.91
2019-06-07T17:40:17.125Z,21.88
2019-06-07T17:42:43.363Z,21.79
2019-06-07T17:45:10.990Z,21.71
2019-06-07T17:47:37.337Z,21.68
2019-06-07T17:50:05.611Z,21.65
2019-06-07T17:52:31.848Z,21.57
2019-06-07T17:54:58.093Z,21.50
2019-06-07T17:57:24.322Z,21.44
2019-06-07T17:59:50.679Z,21.41
2019-06-07T18:02:16.898Z,21.39
2019-06-07T18:04:43.228Z,21.35
2019-06-07T18:07:10.169Z,21.30
2019-06-07T18:09:37.826Z,21.23
2019-06-07T18:12:04.156Z,21.11
2019-06-07T18:14:30.401Z,21.05
2019-06-07T18:16:56.753Z,20.98
2019-06-07T18:19:22.984Z,20.86
2019-06-07T18:21:50.076Z,20.77
2019-06-07T18:24:17.393Z,20.68
2019-06-07T18:26:43.626Z,20.65
2019-06-07T18:29:09.870Z,20.59
2019-06-07T18:31:36.119Z,20.55
2019-06-07T18:34:02.354Z,20.52
2019-06-07T18:36:28.575Z,20.50
2019-06-07T18:38:55.116Z,20.45
2019-06-07T18:41:21.462Z,20.43
2019-06-07T18:43:49.082Z,20.39
2019-06-07T18:46:15.525Z,20.36
2019-06-07T18:48:41.745Z,20.34
2019-06-07T18:51:07.998Z,20.31
2019-06-07T18:53:34.145Z,20.27
2019-06-07T18:56:00.287Z,20.22
2019-06-07T18:58:26.511Z,20.14
2019-06-07T19:00:53.793Z,20.05
2019-06-07T19:03:20.215Z,19.99
2019-06-07T19:05:46.447Z,19.95
2019-06-07T19:08:12.706Z,19.91
2019-06-07T19:10:39.028Z,19.87
2019-06-07T19:13:05.260Z,19.82
2019-06-07T19:15:31.395Z,19.75
2019-06-07T19:17:58.118Z,19.72
2019-06-07T19:20:24.980Z,19.70
2019-06-07T19:22:52.066Z,19.64
2019-06-07T19:25:18.329Z,19.59
2019-06-07T19:27:45.192Z,19.52
2019-06-07T19:30:12.013Z,19.46
2019-06-07T19:32:38.281Z,19.40
2019-06-07T19:35:06.911Z,19.32
2019-06-07T19:37:33.158Z,19.25
2019-06-07T19:40:00.109Z,19.23
2019-06-07T19:42:26.522Z,19.18
2019-06-07T19:45:00.052Z,19.07
2019-06-07T19:47:20.895Z,18.99
2019-06-07T19:49:47.128Z,18.93
2019-06-07T19:52:13.380Z,18.88
2019-06-07T19:54:39.654Z,18.84
2019-06-07T19:57:05.807Z,18.75
2019-06-07T19:59:32.037Z,18.68
2019-06-07T20:01:58.155Z,18.65
2019-06-07T20:04:24.388Z,18.61
2019-06-07T20:06:50.550Z,18.56
2019-06-07T20:09:16.789Z,18.50
2019-06-07T20:11:42.936Z,18.44
2019-06-07T20:14:09.175Z,18.38
2019-06-07T20:16:35.488Z,18.31
2019-06-07T20:19:03.529Z,18.25
2019-06-07T20:21:29.731Z,18.17
2019-06-07T20:23:56.779Z,18.10
2019-06-07T20:26:22.989Z,18.06
2019-06-07T20:28:49.226Z,18.03
2019-06-07T20:31:15.451Z,17.96
2019-06-07T20:33:41.699Z,17.92
2019-06-07T20:36:09.074Z,17.87
2019-06-07T20:38:35.292Z,17.82
2019-06-07T20:41:01.520Z,17.76
2019-06-07T20:43:27.758Z,17.70
2019-06-07T20:45:53.995Z,17.62
2019-06-07T20:48:20.148Z,17.55
2019-06-07T20:50:46.280Z,17.48
2019-06-07T20:53:12.535Z,17.43
2019-06-07T20:55:38.764Z,17.38
2019-06-07T20:58:05.529Z,17.31
2019-06-07T21:00:31.943Z,17.23
2019-06-07T21:02:59.008Z,17.20
2019-06-07T21:05:25.413Z,17.17
2019-06-07T21:07:51.544Z,17.12
2019-06-07T21:10:17.702Z,17.05
2019-06-07T21:12:43.913Z,17.01
2019-06-07T21:15:14.136Z,16.97
2019-06-07T21:17:38.550Z,16.91
2019-06-07T21:20:09.317Z,16.85
2019-06-07T21:22:34.325Z,16.78
2019-06-07T21:25:00.752Z,16.70
2019-06-07T21:27:27.081Z,16.66
2019-06-07T21:30:00.927Z,16.59
2019-06-07T21:32:27.363Z,16.53
2019-06-07T21:34:53.514Z,16.51
2019-06-07T21:37:19.741Z,16.43
2019-06-07T21:39:49.962Z,16.37
2019-06-07T21:42:15.961Z,16.33
2019-06-07T21:44:42.192Z,16.29
2019-06-07T21:47:08.558Z,16.26
2019-06-07T21:49:34.765Z,16.17
2019-06-07T21:52:02.372Z,16.11
2019-06-07T21:54:28.776Z,16.07
2019-06-07T21:56:54.933Z,15.98
2019-06-07T21:59:21.181Z,15.91
2019-06-07T22:01:47.413Z,15.85
2019-06-07T22:04:13.822Z,15.80
2019-06-07T22:06:43.060Z,15.72
2019-06-07T22:09:09.970Z,15.65
2019-06-07T22:11:36.445Z,15.59
2019-06-07T22:14:04.165Z,15.54
2019-06-07T22:16:30.554Z,15.45
2019-06-07T22:19:01.001Z,15.35
2019-06-07T22:21:29.024Z,15.22
2019-06-07T22:23:56.609Z,15.13
2019-06-07T22:26:24.872Z,15.16
2019-06-07T22:28:51.189Z,15.10
2019-06-07T22:31:17.420Z,15.10
2019-06-07T22:33:44.166Z,14.98
2019-06-07T22:36:11.047Z,14.98
2019-06-07T22:38:37.369Z,14.88
2019-06-07T22:41:03.613Z,14.88
2019-06-07T22:43:29.835Z,14.78
2019-06-07T22:45:55.977Z,14.66
2019-06-07T22:48:22.206Z,14.61
2019-06-07T22:50:48.434Z,14.60
2019-06-07T22:53:15.559Z,14.56
2019-06-07T22:55:43.595Z,14.52
2019-06-07T22:58:10.048Z,14.49
2019-06-07T23:00:38.207Z,14.45
2019-06-07T23:03:04.424Z,14.42
2019-06-07T23:05:30.546Z,14.39
2019-06-07T23:07:56.702Z,14.35
2019-06-07T23:10:22.825Z,14.32
2019-06-07T23:12:48.957Z,14.28
2019-06-07T23:15:15.508Z,14.23
2019-06-07T23:17:41.617Z,14.21
2019-06-07T23:20:09.651Z,14.20
2019-06-07T23:22:35.970Z,14.16
2019-06-07T23:25:03.589Z,14.14
2019-06-07T23:27:29.731Z,14.11
2019-06-07T23:29:55.848Z,14.09
2019-06-07T23:32:22.084Z,14.07
2019-06-07T23:34:48.230Z,14.06
2019-06-07T23:37:15.017Z,14.02
2019-06-07T23:39:41.232Z,13.97
2019-06-07T23:42:07.451Z,13.93
2019-06-07T23:44:33.679Z,13.92
2019-06-07T23:47:10.697Z,13.89
2019-06-07T23:49:27.840Z,13.86
2019-06-07T23:51:54.079Z,13.82
2019-06-07T23:54:20.238Z,13.79
2019-06-07T23:56:46.467Z,13.76
2019-06-07T23:59:14.126Z,13.73
